createdAt,value
2022-12-04T00:03:56.967Z,49.82
2022-12-04T00:08:58.868Z,48.69
2022-12-04T00:14:06.414Z,49.63
2022-12-04T00:19:09.258Z,48.79
2022-12-04T00:24:11.179Z,47.80
2022-12-04T00:29:13.132Z,53.94
2022-12-04T00:34:15.043Z,61.95
2022-12-04T00:39:17.074Z,63.83
2022-12-04T00:44:18.984Z,62.97
2022-12-04T00:49:20.871Z,57.86
2022-12-04T00:54:22.827Z,55.15
2022-12-04T00:59:24.735Z,53.52
2022-12-04T01:04:26.712Z,51.92
2022-12-04T01:09:28.649Z,53.73
2022-12-04T01:14:30.647Z,53.51
2022-12-04T01:19:32.568Z,53.97
2022-12-04T01:24:34.464Z,52.72
2022-12-04T01:29:36.387Z,51.23
2022-12-04T01:34:38.292Z,50.92
2022-12-04T01:39:40.307Z,50.83
2022-12-04T01:44:45.150Z,50.13
2022-12-04T01:49:48.857Z,50.09
2022-12-04T01:54:56.510Z,55.04
2022-12-04T02:00:02.099Z,57.85
2022-12-04T02:05:10.176Z,64.54
2022-12-04T02:10:13.990Z,61.00
2022-12-04T02:15:29.314Z,58.45
2022-12-04T02:20:41.226Z,57.50
2022-12-04T02:26:10.929Z,63.33
2022-12-04T02:31:19.487Z,60.02
2022-12-04T02:36:24.187Z,58.28
2022-12-04T02:41:35.100Z,54.67
2022-12-04T02:46:41.026Z,57.83
2022-12-04T02:51:46.096Z,54.76
2022-12-04T02:56:51.811Z,52.10
2022-12-04T03:01:58.985Z,53.44
2022-12-04T03:07:07.568Z,53.38
2022-12-04T03:12:18.240Z,51.38
2022-12-04T03:17:27.264Z,50.34
2022-12-04T03:22:31.647Z,48.64
2022-12-04T03:27:54.606Z,49.57
2022-12-04T03:33:17.336Z,49.29
2022-12-04T03:38:41.701Z,47.26
2022-12-04T03:44:00.266Z,47.30
2022-12-04T03:49:21.490Z,46.80
2022-12-04T03:54:38.361Z,46.56
2022-12-04T04:00:06.419Z,45.78
2022-12-04T04:05:11.770Z,56.13
2022-12-04T04:10:24.222Z,64.31
2022-12-04T04:15:45.002Z,66.10
2022-12-04T04:21:17.213Z,58.73
2022-12-04T04:26:19.197Z,56.35
2022-12-04T04:31:43.211Z,52.49
2022-12-04T04:37:10.917Z,50.52
2022-12-04T04:42:30.170Z,54.12
2022-12-04T04:47:38.784Z,51.59
2022-12-04T04:52:46.269Z,50.97
2022-12-04T04:57:48.250Z,51.78
2022-12-04T05:02:50.446Z,49.46
2022-12-04T05:07:52.529Z,50.29
2022-12-04T05:12:54.456Z,52.54
2022-12-04T05:17:56.366Z,50.44
2022-12-04T05:22:59.128Z,49.55
2022-12-04T05:28:01.075Z,55.31
2022-12-04T05:33:03.155Z,51.81
2022-12-04T05:38:05.054Z,51.32
2022-12-04T05:43:06.948Z,52.47
2022-12-04T05:48:08.954Z,56.17
2022-12-04T05:53:10.916Z,55.82
2022-12-04T05:58:12.787Z,54.65
2022-12-04T06:03:14.779Z,54.17
2022-12-04T06:08:16.936Z,52.09
2022-12-04T06:13:18.911Z,50.17
2022-12-04T06:18:20.991Z,49.35
2022-12-04T06:23:22.976Z,48.72
2022-12-04T06:28:24.882Z,51.76
2022-12-04T06:33:27.094Z,51.86
2022-12-04T06:38:29.672Z,53.82
2022-12-04T06:43:31.959Z,51.89
2022-12-04T06:48:34.484Z,49.34
2022-12-04T06:53:36.967Z,47.40
2022-12-04T06:58:38.937Z,49.86
2022-12-04T07:03:43.611Z,55.74
2022-12-04T07:08:52.539Z,59.19
2022-12-04T07:13:54.773Z,56.73
2022-12-04T07:18:57.389Z,60.06
2022-12-04T07:24:01.508Z,56.42
2022-12-04T07:29:03.463Z,54.30
2022-12-04T07:34:05.610Z,52.52
2022-12-04T07:39:07.800Z,50.85
2022-12-04T07:44:09.867Z,53.02
2022-12-04T07:49:12.914Z,55.41
2022-12-04T07:54:14.865Z,60.73
2022-12-04T07:59:16.867Z,55.15
2022-12-04T08:04:18.877Z,52.46
2022-12-04T08:09:20.872Z,53.28
2022-12-04T08:14:22.919Z,51.71
2022-12-04T08:19:25.502Z,52.31
2022-12-04T08:24:27.488Z,52.73
2022-12-04T08:29:29.405Z,49.54
2022-12-04T08:34:32.018Z,52.61
2022-12-04T08:39:33.998Z,64.70
2022-12-04T08:44:35.909Z,57.82
2022-12-04T08:49:38.031Z,59.05
2022-12-04T08:54:40.013Z,57.06
2022-12-04T08:59:42.376Z,57.39
2022-12-04T09:04:44.404Z,59.33
2022-12-04T09:09:55.175Z,62.84
2022-12-04T09:14:57.186Z,66.11
2022-12-04T09:20:01.164Z,60.42
2022-12-04T09:25:05.183Z,59.33
2022-12-04T09:30:09.004Z,60.08
2022-12-04T09:35:11.018Z,69.19
2022-12-04T09:40:32.068Z,69.58
2022-12-04T09:45:54.985Z,65.84
2022-12-04T09:50:57.791Z,62.75
2022-12-04T09:56:05.830Z,67.38
2022-12-04T10:01:21.088Z,61.77
2022-12-04T10:06:32.508Z,64.58
2022-12-04T10:11:53.454Z,67.90
2022-12-04T10:17:19.097Z,65.45
2022-12-04T10:22:33.511Z,60.06
2022-12-04T10:28:09.608Z,63.03
2022-12-04T10:33:32.347Z,67.89
2022-12-04T10:38:43.781Z,61.64
2022-12-04T10:43:48.546Z,61.86
2022-12-04T10:49:09.659Z,70.78
2022-12-04T10:54:25.384Z,69.82
2022-12-04T10:59:28.235Z,74.73
2022-12-04T11:04:31.908Z,74.86
2022-12-04T11:09:34.610Z,63.73
2022-12-04T11:14:36.711Z,61.24
2022-12-04T11:19:38.660Z,65.93
2022-12-04T11:24:42.888Z,60.44
2022-12-04T11:29:46.637Z,56.30
2022-12-04T11:34:51.929Z,52.90
2022-12-04T11:39:55.658Z,53.49
2022-12-04T11:45:17.987Z,56.04
2022-12-04T11:50:54.013Z,57.92
2022-12-04T11:56:25.084Z,62.87
2022-12-04T12:02:20.851Z,58.11
2022-12-04T12:07:59.088Z,52.88
2022-12-04T12:13:09.031Z,56.48
2022-12-04T12:18:19.252Z,61.67
2022-12-04T12:23:31.467Z,64.60
2022-12-04T12:29:00.667Z,66.03
2022-12-04T12:34:08.654Z,63.30
2022-12-04T12:39:26.712Z,58.36
2022-12-04T12:45:03.664Z,61.89
2022-12-04T12:50:22.844Z,58.22
2022-12-04T12:55:39.030Z,64.66
2022-12-04T13:00:50.022Z,65.94
2022-12-04T13:05:57.739Z,60.89
2022-12-04T13:11:12.584Z,54.47
2022-12-04T13:16:36.462Z,60.36
2022-12-04T13:21:57.220Z,66.29
2022-12-04T13:27:11.282Z,67.05
2022-12-04T13:32:43.428Z,70.98
2022-12-04T13:37:57.581Z,69.97
2022-12-04T13:43:27.749Z,61.77
2022-12-04T13:48:33.782Z,66.19
2022-12-04T13:53:38.003Z,57.45
2022-12-04T13:58:40.167Z,55.50
2022-12-04T14:03:55.561Z,56.90
2022-12-04T14:09:01.392Z,60.12
2022-12-04T14:14:07.930Z,63.08
2022-12-04T14:19:27.852Z,59.10
2022-12-04T14:24:30.531Z,56.57
2022-12-04T14:29:46.327Z,61.29
2022-12-04T14:34:50.426Z,64.41
2022-12-04T14:39:53.110Z,60.77
2022-12-04T14:45:17.458Z,56.47
2022-12-04T14:50:42.420Z,52.73
2022-12-04T14:56:09.179Z,51.26
2022-12-04T15:01:29.691Z,53.81
2022-12-04T15:06:34.025Z,56.29
2022-12-04T15:12:04.992Z,56.06
2022-12-04T15:17:09.367Z,53.50
2022-12-04T15:22:28.362Z,55.01
2022-12-04T15:27:32.920Z,58.73
2022-12-04T15:32:35.274Z,60.89
2022-12-04T15:37:37.992Z,60.51
2022-12-04T15:42:40.078Z,55.21
2022-12-04T15:47:42.134Z,54.05
2022-12-04T15:52:56.439Z,48.83
2022-12-04T15:58:22.636Z,51.58
2022-12-04T16:03:44.786Z,47.07
2022-12-04T16:08:56.278Z,47.28
2022-12-04T16:14:16.567Z,59.09
2022-12-04T16:19:34.367Z,51.49
2022-12-04T16:24:36.735Z,49.48
2022-12-04T16:29:39.077Z,47.56
2022-12-04T16:34:41.184Z,50.29
2022-12-04T16:39:44.004Z,52.58
2022-12-04T16:44:46.152Z,50.15
2022-12-04T16:49:50.166Z,48.63
2022-12-04T16:54:52.184Z,49.13
2022-12-04T16:59:54.366Z,55.96
2022-12-04T17:04:58.063Z,49.67
2022-12-04T17:10:00.539Z,49.86
2022-12-04T17:15:02.507Z,50.82
2022-12-04T17:20:07.504Z,49.97
2022-12-04T17:25:10.574Z,48.33
2022-12-04T17:30:13.256Z,48.33
2022-12-04T17:35:15.809Z,52.59
2022-12-04T17:40:19.313Z,48.71
2022-12-04T17:45:21.290Z,49.09
2022-12-04T17:50:23.265Z,47.31
2022-12-04T17:55:25.262Z,52.49
2022-12-04T18:00:27.320Z,60.70
2022-12-04T18:05:29.469Z,53.06
2022-12-04T18:10:31.511Z,51.92
2022-12-04T18:15:34.802Z,54.15
2022-12-04T18:20:37.274Z,52.42
2022-12-04T18:25:39.240Z,53.02
2022-12-04T18:30:42.429Z,52.93
2022-12-04T18:35:48.774Z,52.01
2022-12-04T18:40:56.036Z,50.10
2022-12-04T18:46:07.720Z,50.13
2022-12-04T18:51:21.533Z,48.88
2022-12-04T18:56:23.627Z,50.53
2022-12-04T19:01:27.262Z,49.50
2022-12-04T19:06:41.166Z,46.62
2022-12-04T19:11:44.001Z,52.97
2022-12-04T19:16:46.586Z,51.88
2022-12-04T19:21:48.713Z,49.04
2022-12-04T19:26:53.973Z,48.13
2022-12-04T19:31:59.237Z,46.59
2022-12-04T19:37:01.896Z,52.81
2022-12-04T19:42:03.876Z,54.42
2022-12-04T19:47:05.755Z,53.43
2022-12-04T19:52:07.734Z,49.69
2022-12-04T19:57:10.030Z,48.79
2022-12-04T20:02:12.299Z,48.41
2022-12-04T20:07:14.663Z,49.07
2022-12-04T20:12:16.627Z,46.44
2022-12-04T20:17:18.634Z,46.21
2022-12-04T20:22:20.817Z,45.75
2022-12-04T20:27:22.844Z,45.20
2022-12-04T20:32:24.762Z,45.81
2022-12-04T20:37:27.133Z,46.21
2022-12-04T20:42:33.476Z,45.96
2022-12-04T20:47:36.402Z,45.44
2022-12-04T20:52:38.709Z,46.59
2022-12-04T20:57:40.662Z,47.66
2022-12-04T21:02:43.633Z,52.94
2022-12-04T21:07:45.616Z,50.75
2022-12-04T21:13:06.087Z,49.43
2022-12-04T21:18:08.154Z,47.13
2022-12-04T21:23:10.098Z,45.36
2022-12-04T21:28:12.039Z,44.84
2022-12-04T21:33:13.961Z,45.64
2022-12-04T21:38:15.883Z,44.66
2022-12-04T21:43:17.787Z,45.09
2022-12-04T21:48:19.692Z,45.17
2022-12-04T21:53:21.868Z,45.28
2022-12-04T21:58:26.085Z,46.64
2022-12-04T22:03:28.136Z,46.83
2022-12-04T22:08:30.113Z,47.55
2022-12-04T22:13:32.774Z,47.61
2022-12-04T22:18:35.098Z,46.90
2022-12-04T22:23:37.776Z,47.72
2022-12-04T22:28:40.418Z,46.75
2022-12-04T22:33:43.233Z,45.66
2022-12-04T22:39:08.780Z,47.85
2022-12-04T22:44:07.907Z,44.99
2022-12-04T22:49:09.844Z,47.45
2022-12-04T22:54:14.169Z,46.19
2022-12-04T22:59:16.078Z,46.17
2022-12-04T23:04:18.201Z,45.10
2022-12-04T23:09:20.405Z,45.29
2022-12-04T23:14:23.499Z,44.20
2022-12-04T23:19:25.574Z,45.34
2022-12-04T23:24:27.513Z,45.61
2022-12-04T23:29:52.185Z,49.54
2022-12-04T23:34:53.087Z,53.68
2022-12-04T23:39:55.222Z,52.44
2022-12-04T23:44:57.231Z,51.03
2022-12-04T23:49:59.459Z,52.97
2022-12-04T23:55:01.628Z,50.34
